logo tempoitalia

Diretta Meteo Belgrado-Surcin, Serbialunedì 31 agosto ore 07:00

Mappa
Sereno 22 °C Sereno 24 Ore: T.min 19 T.max 32
Ponente Nord Km/h 5.5 Punto di rugiada: 16 °C Umidità: 68% Visibilità: 10 Km
Il sole sorge alle: 05:59 Il sole tramonta alle: 19:18
31 Agosto 2026 07:00 tempo osservato: Sereno Sereno 22 68 1015 vento: Nord N 5.5
31 Agosto 2026 06:30 tempo osservato: Sereno Sereno 20 72 1015 vento: Nord N 5.5
31 Agosto 2026 06:00 tempo osservato: Sereno Sereno 19 77 1015 vento: Nord N 5.5
31 Agosto 2026 05:30 tempo osservato: Sereno Sereno 20 72 1015 vento: Nord N 5.5
31 Agosto 2026 05:00 tempo osservato: Sereno Sereno 20 72 1015 vento: Nord N 3.7
31 Agosto 2026 04:30 tempo osservato: Sereno Sereno 19 77 1015 vento: Nord SE 7.4
31 Agosto 2026 04:00 tempo osservato: Sereno Sereno 20 72 1015 vento: Nord N 3.7
31 Agosto 2026 03:30 tempo osservato: Sereno Sereno 21 68 1015 vento: Nord N 5.5
31 Agosto 2026 03:00 tempo osservato: Sereno Sereno 22 60 1015 vento: Nord N 5.5
31 Agosto 2026 02:30 tempo osservato: Sereno Sereno 22 64 1015 vento: Nord N 5.5
31 Agosto 2026 02:00 tempo osservato: Sereno Sereno 23 60 1015 vento: Nord E/NE 7.4
31 Agosto 2026 01:30 tempo osservato: Sereno Sereno 22 64 1015 vento: Nord E/NE 7.4
31 Agosto 2026 01:00 tempo osservato: Sereno Sereno 24 57 1015 vento: Nord NE 7.4
31 Agosto 2026 00:30 tempo osservato: Sereno Sereno 25 50 1015 vento: Nord NE 9.3
31 Agosto 2026 00:00 tempo osservato: Sereno Sereno 24 53 1016 vento: Nord E/NE 9.3
30 Agosto 2026 23:30 tempo osservato: Sereno Sereno 25 50 1016 vento: Nord E/NE 9.3
30 Agosto 2026 23:00 tempo osservato: Sereno Sereno 25 50 1016 vento: Nord E/NE 11.1
30 Agosto 2026 22:30 tempo osservato: Sereno Sereno 26 50 1016 vento: Nord E/NE 9.3
30 Agosto 2026 22:00 tempo osservato: Sereno Sereno 27 47 1016 vento: Nord NE 9.3
30 Agosto 2026 21:30 tempo osservato: Sereno Sereno 27 47 1016 vento: Nord NE 9.3
30 Agosto 2026 21:00 tempo osservato: Sereno Sereno 27 47 1015 vento: Nord NE 7.4
30 Agosto 2026 20:30 tempo osservato: Sereno Sereno 27 47 1015 vento: Nord NE 7.4
30 Agosto 2026 20:00 tempo osservato: Sereno Sereno 28 45 1015 vento: Nord N 5.5
30 Agosto 2026 19:30 tempo osservato: Sereno Sereno 30 40 1014 vento: Nord N/NE 7.4
30 Agosto 2026 19:00 tempo osservato: Sereno Sereno 31 37 1014 vento: Nord N/NE 7.4
30 Agosto 2026 18:30 tempo osservato: Sereno Sereno 31 37 1014 vento: Nord NE 7.4
30 Agosto 2026 18:00 tempo osservato: Sereno Sereno 32 35 1014 vento: Nord NE 7.4
30 Agosto 2026 17:30 tempo osservato: Sereno Sereno 32 35 1014 vento: Nord E 7.4
30 Agosto 2026 17:00 tempo osservato: Sereno Sereno 32 33 1015 vento: Nord N 5.5
30 Agosto 2026 16:30 tempo osservato: Sereno Sereno 32 35 1015 vento: Nord N 7.4
30 Agosto 2026 16:00 tempo osservato: Sereno Sereno 32 35 1015 vento: Nord N 11.1
30 Agosto 2026 15:30 tempo osservato: Sereno Sereno 32 33 1015 vento: Nord N 9.3
30 Agosto 2026 15:00 tempo osservato: Sereno Sereno 32 38 1016 vento: Nord N 7.4
30 Agosto 2026 14:30 tempo osservato: Sereno Sereno 31 40 1016 vento: Nord E 9.3
30 Agosto 2026 14:00 tempo osservato: Sereno Sereno 31 43 1016 vento: Nord N 9.3
30 Agosto 2026 13:30 tempo osservato: Sereno Sereno 31 43 1016 vento: Nord N 7.4
30 Agosto 2026 13:00 tempo osservato: Sereno Sereno 30 42 1016 vento: Nord N 7.4
30 Agosto 2026 12:30 tempo osservato: Sereno Sereno 30 45 1017 vento: Nord N 9.3
30 Agosto 2026 12:00 tempo osservato: Sereno Sereno 29 48 1017 vento: Nord E/NE 9.3
30 Agosto 2026 11:30 tempo osservato: Sereno Sereno 29 51 1017 vento: Nord N 7.4
30 Agosto 2026 11:00 tempo osservato: Sereno Sereno 28 51 1017 vento: Nord O/SO 7.4
30 Agosto 2026 10:30 tempo osservato: Sereno Sereno 27 57 1017 vento: Nord N 7.4
30 Agosto 2026 10:00 tempo osservato: Sereno Sereno 26 61 1017 vento: Nord N/NO 7.4
30 Agosto 2026 09:30 tempo osservato: Sereno Sereno 25 65 1017 vento: Nord N 5.5
30 Agosto 2026 09:00 tempo osservato: Sereno Sereno 23 73 1017 vento: Nord N 5.5
30 Agosto 2026 08:30 tempo osservato: Sereno Sereno 22 78 1017 vento: Nord N 5.5
30 Agosto 2026 08:00 tempo osservato: Sereno Sereno 22 78 1017 vento: Nord N 3.7